Hlavní strana
METAR-TAF:

METAR-TAF

Letiště :

Letiště Agadir

Agadir, Maroko

zeměpisná šířka: 30-20N, zeměpisná délka: 009-24W, výška: 74 m

Aktuální stav počasí

Zpráva byla vytvořena před 17 minutami, v 05:00 UTC
Jihojihovýchodní vítr 4 kt
Teplota 20°C
Vlhkost vzduchu 78%
Tlak 1010 hPa
Viditelnost: 8000 m
Oblačno až skoro zataženo ve výšce 1600 ft

METAR: GMAD 300500Z 16004KT 8000 BKN016 20/16 Q1010 NOSIG

Čas: 06:17 (05:17 UTC)

Předpověď počasí

Zpráva byla vytvořena před 6 hodinami a 17 minutami, v 23:00 UTC
Předpověď platná od 30 v 00 UTC do 31 v 06 UTC
Západojihozápadní vítr 5 kt
Viditelnost 10 km a více
Skoro jasno ve výšce 1600 ft

TAF: GMAD 292300Z 3000/3106 24005KT 9999 FEW016

Stav a předpovědi počasí z více než 4 000 letišť (zprávy METAR a TAF).

Červené a žluté tečky na mapě představují dostupné meteorologické stanice.

Když kurzor umístíte na tečku, zobrazí se název stanice.

Pak kliknutím zobrazíte stav a předpověď počasí.

Chcete-li změnit mapu, kliknutím na zelené tlačítko se znaménkem +mapu přiblížíte, kliknutím na zelené tlačítko se znaménkem – mapu oddálíte a kliknutím na zelené šipky přejdete na sousední mapy.


METAR-TAF: